John Forsberg

Olheiro-Chefe - IFK Norrkoping
23 Abr 2028
Domingo
Processo

Personalidade

Adaptabilidade (8) Ambição (4) Controvérsia (3) Lealdade (5) Pressão (10) Profissionalismo (17) Espírito Esportivo (13) Temperamento (10)

Perfil

Estilo de Treinamento Democrático
Licença Continental C
Determinação 10
Gestão de Pessoas 6
Motivação 10
Disciplina 8
Satisfação no Trabalho
100%
Fadiga
0%
Função Olheiro-Chefe
Salário 65.8K p/s
Contrato 14.03.2029

Desempenho

Comportamento Bom
Eficácia do Treinamento
35%
Desenvolvimento do Jogador
55%
Prevenção de Lesões
20%
Implementação Tática
45%

Eventos Recentes

Participou de uma reunião de recrutamento agora
Participou de uma reunião de recrutamento 7d atrás
Recomendou um alvo de transferência 7d atrás
Recomendou um alvo de transferência 7d atrás
Participou de uma reunião de recrutamento 14d atrás
Recomendou um alvo de transferência 14d atrás
Recomendou um alvo de transferência 14d atrás
Recomendou um alvo de transferência 21d atrás

Monitorando agora

97
Jogador Clube Status Habilidade Confiança Observado Última observação Último voto
Joel Allansson Halmstad Ativo 108 / 94 62% 1 26.07.2027 Aprovar
Toby Collyer West Bromwich Albion Ativo 141 / 132 40% 1 23.07.2027 -
Kazunari Kita Real Sociedad Ativo 107 / 109 40% 2 10.07.2027 -
Andrea Bertoncini Triestina Ativo 99 / 96 40% 1 06.07.2027 -
George Hoddle Cambridge United Ativo 90 / 91 40% 1 06.07.2027 -
Rhys Walters Port Vale Ativo 101 / 110 40% 1 05.07.2027 -
Josh Davidson Milton Keynes Dons Ativo 96 / 90 40% 1 29.06.2027 -
Jan Bürger Northampton Town Ativo 118 / 124 40% 1 29.06.2027 -
Bernardo Lima Porto Ativo 98 / 106 40% 1 26.06.2027 -
Josh King Newcastle United Ativo 144 / 141 40% 1 26.06.2027 -
Riley Owen Stevenage Ativo 100 / 103 40% 2 23.06.2027 -
Olivier Leroux Mouscron Ativo 101 / 110 40% 1 23.06.2027 -
Agustín De la Cuesta Racing Ativo 103 / 119 40% 2 22.06.2027 -
Kamaldeen Atiemo Wa All Stars Ativo 98 / 113 40% 1 22.06.2027 -
Milan Roganović Racing Genk Ativo 109 / 121 40% 1 21.06.2027 -
Issa Yusuf Shooting Stars Ativo 81 / 98 40% 1 21.06.2027 -
David Damboama El-Kanemi Warriors Ativo 87 / 101 40% 1 19.06.2027 -
Germán Barbas Burgos Ativo 107 / 112 40% 1 19.06.2027 -
Ivan Giraldo Valencia Ativo 117 / 128 40% 2 15.06.2027 -
Charlie Gray Fleetwood Town Ativo 91 / 92 40% 2 15.06.2027 -
Federico Matarán Giana Erminio Ativo 101 / 110 40% 1 11.06.2027 -
Jenson Jones Walsall Ativo 100 / 109 40% 1 11.06.2027 -
Gonçalo Oliveira Benfica Ativo 120 / 124 40% 1 10.06.2027 -
Martim Cunha Porto Ativo 108 / 105 40% 1 09.06.2027 -
Zane Albarus Shrewsbury Town Ativo 95 / 104 40% 1 09.06.2027 -
Alexandro Maidana Eibar Ativo 108 / 119 40% 1 08.06.2027 -
Rhys Chadwick AFC Wimbledon Ativo 105 / 105 40% 1 08.06.2027 -
Samuel Lucero Defensa y Justicia Ativo 108 / 124 40% 1 06.06.2027 -
Francis Gomez Cardiff City Ativo 113 / 111 40% 1 06.06.2027 -
Gady Beyuku Blackburn Rovers Ativo 111 / 124 40% 1 05.06.2027 -
Cian Ashford Cardiff City Ativo 123 / 118 40% 2 22.02.2027 -
Terry Devlin Portsmouth Ativo 122 / 123 40% 1 16.02.2027 -
Shea Charles Southampton Ativo 133 / 128 40% 1 16.02.2027 -
Di'Shon Bernard Sheffield Wednesday Ativo 131 / 122 40% 1 02.02.2027 -
Aldair Faustino Levski Ativo 122 / 117 40% 1 02.02.2027 -
Alfie Doughty Millwall Ativo 125 / 130 40% 2 01.02.2027 -
Sampson Dweh Mallorca Negociando 133 / 134 66% 1 01.02.2027 Aprovar
Jacob Greaves Ipswich Town Ativo 143 / 138 40% 1 01.02.2027 -
Patrick Maswanganyi Orlando Pirates Ativo 102 / 107 40% 3 31.01.2027 -
Bernard Tekpetey Ludogorets Ativo 112 / 120 40% 3 30.01.2027 -
Andre Brooks Sheffield United Ativo 127 / 135 40% 2 28.01.2027 -
Alex Robertson Cardiff City Ativo 129 / 125 40% 1 28.01.2027 -
Bongani Zungu Ajax Cape Town Ativo 144 / 138 40% 7 22.01.2027 -
Sorba Thomas Stoke City Ativo 138 / 133 40% 3 21.01.2027 -
Max Johnston Derby County Ativo 136 / 131 40% 2 21.01.2027 -
Amar Memić Viktoria Plzen Ativo 113 / 139 40% 2 14.01.2027 -
Oladapo Afolayan Blackburn Rovers Ativo 127 / 129 40% 1 13.01.2027 -
Ryoya Morishita Blackburn Rovers Ativo 129 / 123 40% 1 11.01.2027 -
Callum Brittain Middlesbrough Ativo 130 / 137 40% 1 10.01.2027 -
Welington Southampton Ativo 133 / 126 40% 2 09.01.2027 -
Bradley Zwane SuperSport United Ativo 104 / 106 40% 5 08.01.2027 -
Brooke Norton-Cuffy Hull City Ativo 131 / 132 40% 1 07.01.2027 -
Scott Twine Bristol City Ativo 129 / 125 40% 1 07.01.2027 -
Finn Azaz Southampton Ativo 131 / 133 40% 1 06.01.2027 -
Jack Rudoni Coventry City Ativo 143 / 138 40% 1 01.01.2027 -
Tyrese Campbell Sheffield United Ativo 131 / 133 40% 2 29.12.2026 -
Petar Stanić Ludogorets Ativo 154 / 140 40% 1 29.12.2026 -
Tyrhys Dolan Espanyol Ativo 129 / 139 40% 3 28.12.2026 -
Peter Federico Gornik Zabrze Ativo 139 / 117 40% 1 25.12.2026 -
Oswin Appollis Orlando Pirates Ativo 122 / 111 40% 2 23.12.2026 -
Aidan Morris Middlesbrough Ativo 129 / 137 40% 1 19.12.2026 -
Melker Widell Swansea City Ativo 125 / 119 40% 1 17.12.2026 -
Jordan Lotomba Bloemfontein Celtic Ativo 111 / 123 40% 2 14.12.2026 -
Josh Tymon Swansea City Ativo 123 / 124 40% 1 13.12.2026 -
Rob Atkinson Bristol City Ativo 128 / 132 40% 1 13.12.2026 -
Mikey Johnston West Bromwich Albion Ativo 111 / 122 40% 1 13.12.2026 -
Lewis Bate Stockport County Ativo 116 / 121 40% 1 10.12.2026 -
Mayckel Lahdo Malmo FF Ativo 125 / 136 40% 2 08.12.2026 -
Max Bird Birmingham Ativo 126 / 133 40% 1 04.12.2026 -
Fawaaz Basadien Mamelodi Sundowns Ativo 125 / 114 40% 1 30.11.2026 -
Talles Magno New York City Ativo 139 / 132 40% 1 22.11.2026 -
Johan Hove AIK Ativo 120 / 109 40% 2 20.11.2026 -
Victor Lind Hammarby Ativo 136 / 135 40% 2 16.11.2026 -
Alexis Alégué Zbrojovka Brno Ativo 136 / 127 40% 1 15.11.2026 -
Teboho Mokoena Mamelodi Sundowns Ativo 140 / 129 40% 2 03.11.2026 -
Lucas Assadi AIK Ativo 133 / 128 40% 1 03.11.2026 -
Daniel Kyerewaa Reading Ativo 108 / 104 40% 2 01.11.2026 -
Facundo Mura Inter Miami CF Ativo 122 / 133 40% 1 29.10.2026 -
Peter Valjent FK Senica Ativo 100 / 131 40% 1 22.10.2026 -
Conrad Wallem Djurgarden Ativo 134 / 126 40% 1 20.10.2026 -
Paulos Abraham Hammarby Ativo 131 / 111 40% 1 20.10.2026 -
Sota Kitano Red Bull Salzburg Ativo 131 / 124 40% 1 18.10.2026 -
Martín Ojeda Orlando City Ativo 146 / 148 40% 1 18.10.2026 -
André Franco Chicago Fire Ativo 141 / 119 40% 1 16.10.2026 -
Kolbeinn Þórðarson IFK Goteborg Ativo 116 / 110 40% 1 16.10.2026 -
Cheikh Sabaly Vancouver Whitecaps Ativo 138 / 134 40% 1 14.10.2026 -
Morgan Guilavogui Real Salt Lake Ativo 119 / 127 40% 1 13.10.2026 -
André Luiz Sporting Kansas City Ativo 111 / 120 40% 1 09.10.2026 -
Santiago Rodríguez Columbus Crew Ativo 145 / 116 40% 1 07.10.2026 -
Jack Harrison New England Revolution Ativo 125 / 120 40% 1 06.10.2026 -
Reda Khadra Qarabag Ativo 136 / 139 40% 1 05.10.2026 -
Malte Amundsen Columbus Crew Ativo 113 / 123 40% 1 15.09.2026 -
Joaquín Pereyra Minnesota United FC Ativo 147 / 126 40% 1 11.09.2026 -
Antony Portland Timbers Ativo 136 / 145 40% 1 08.09.2026 -
Anders Dreyer San Diego Football Club Ativo 127 / 129 40% 1 07.09.2026 -
David Ayala Inter Miami CF Ativo 136 / 129 40% 1 07.09.2026 -
Gabriel Pirani San Diego Football Club Ativo 122 / 135 40% 1 02.08.2026 -